createdAt,value
2017-04-10T00:02:38.444Z,64.46
2017-04-10T00:08:33.833Z,64.36
2017-04-10T00:09:43.909Z,64.15
2017-04-10T00:10:43.962Z,64.16
2017-04-10T00:11:38.858Z,64.10
2017-04-10T00:14:40.135Z,63.97
2017-04-10T00:18:38.743Z,64.82
2017-04-10T00:19:38.834Z,64.55
2017-04-10T00:21:33.613Z,64.91
2017-04-10T00:22:43.866Z,64.60
2017-04-10T00:24:38.439Z,64.41
2017-04-10T00:25:38.520Z,64.60
2017-04-10T00:26:38.654Z,64.55
2017-04-10T00:27:38.704Z,64.77
2017-04-10T00:28:33.918Z,64.78
2017-04-10T00:29:45.449Z,64.38
2017-04-10T00:30:38.855Z,64.58
2017-04-10T00:33:38.817Z,64.30
2017-04-10T00:34:40.829Z,64.41
2017-04-10T00:35:33.386Z,64.42
2017-04-10T00:37:44.992Z,64.04
2017-04-10T00:39:40.936Z,64.27
2017-04-10T00:41:43.619Z,64.09
2017-04-10T00:42:38.857Z,63.17
2017-04-10T00:43:43.097Z,63.28
2017-04-10T00:44:43.498Z,64.36
2017-04-10T00:45:38.837Z,63.94
2017-04-10T00:46:38.655Z,63.94
2017-04-10T00:50:38.551Z,63.55
2017-04-10T00:51:40.464Z,63.68
2017-04-10T00:52:38.193Z,63.33
2017-04-10T01:02:32.967Z,64.05
2017-04-10T01:03:38.318Z,63.64
2017-04-10T01:04:42.263Z,63.57
2017-04-10T01:05:35.445Z,63.93
2017-04-10T01:06:39.203Z,63.84
2017-04-10T01:07:43.287Z,63.59
2017-04-10T01:11:46.364Z,63.54
2017-04-10T01:12:38.189Z,63.24
2017-04-10T01:14:38.430Z,63.52
2017-04-10T01:18:38.727Z,63.33
2017-04-10T01:21:43.587Z,63.94
2017-04-10T01:23:43.932Z,63.20
2017-04-10T01:25:46.059Z,63.17
2017-04-10T01:26:42.761Z,63.31
2017-04-10T01:27:39.106Z,63.47
2017-04-10T01:28:43.475Z,63.87
2017-04-10T01:29:39.205Z,63.32
2017-04-10T01:30:40.940Z,63.20
2017-04-10T01:31:40.119Z,63.51
2017-04-10T01:32:48.553Z,62.69
2017-04-10T01:33:38.600Z,63.26
2017-04-10T01:34:40.180Z,63.06
2017-04-10T01:36:38.460Z,62.86
2017-04-10T01:37:38.459Z,62.54
2017-04-10T01:39:40.040Z,62.62
2017-04-10T01:44:38.262Z,63.11
2017-04-10T01:45:38.610Z,63.12
2017-04-10T01:46:43.265Z,63.15
2017-04-10T01:47:38.185Z,63.24
2017-04-10T01:49:50.765Z,63.31
2017-04-10T01:51:39.083Z,63.14
2017-04-10T01:53:39.967Z,63.18
2017-04-10T01:54:38.211Z,62.99
2017-04-10T02:00:38.915Z,62.28
2017-04-10T02:01:39.063Z,62.32
2017-04-10T02:03:38.517Z,62.25
2017-04-10T02:06:32.853Z,62.35
2017-04-10T02:07:43.551Z,62.58
2017-04-10T02:09:45.376Z,62.22
2017-04-10T02:10:45.009Z,61.99
2017-04-10T02:11:38.102Z,62.32
2017-04-10T02:12:44.293Z,62.11
2017-04-10T02:13:44.251Z,61.73
2017-04-10T02:14:43.287Z,61.53
2017-04-10T02:15:43.209Z,61.75
2017-04-10T02:16:56.959Z,61.86
2017-04-10T02:17:42.991Z,61.74
2017-04-10T02:18:38.294Z,61.70
2017-04-10T02:19:45.618Z,61.60
2017-04-10T02:20:40.366Z,61.82
2017-04-10T02:21:53.211Z,61.92
2017-04-10T02:22:43.253Z,61.73
2017-04-10T02:24:38.510Z,62.55
2017-04-10T02:28:43.216Z,62.15
2017-04-10T02:30:38.437Z,62.35
2017-04-10T02:31:38.524Z,62.60
2017-04-10T02:38:44.223Z,62.13
2017-04-10T02:40:43.484Z,62.64
2017-04-10T02:42:43.810Z,62.32
2017-04-10T02:43:39.549Z,62.12
2017-04-10T02:44:44.982Z,61.92
2017-04-10T02:45:38.760Z,62.21
2017-04-10T02:46:50.698Z,62.28
2017-04-10T02:47:45.485Z,62.58
2017-04-10T02:48:43.210Z,62.24
2017-04-10T02:49:35.052Z,61.57
2017-04-10T02:54:43.252Z,61.43
2017-04-10T02:57:44.243Z,61.15
2017-04-10T02:59:38.208Z,61.58
2017-04-10T03:01:44.182Z,61.64
2017-04-10T03:02:38.055Z,61.76
2017-04-10T03:04:38.803Z,61.50
2017-04-10T03:06:38.754Z,61.56
2017-04-10T03:09:40.067Z,61.98
2017-04-10T03:10:43.298Z,61.16
2017-04-10T03:12:46.310Z,61.14
2017-04-10T03:13:43.347Z,61.37
2017-04-10T03:15:39.908Z,61.46
2017-04-10T03:16:43.078Z,61.30
2017-04-10T03:17:32.668Z,61.86
2017-04-10T03:19:34.038Z,61.32
2017-04-10T03:20:33.802Z,60.71
2017-04-10T03:22:43.742Z,61.54
2017-04-10T03:23:39.043Z,61.15
2017-04-10T03:24:39.053Z,61.41
2017-04-10T03:25:43.317Z,61.54
2017-04-10T03:26:38.279Z,60.90
2017-04-10T03:27:38.213Z,61.27
2017-04-10T03:28:40.316Z,61.25
2017-04-10T03:32:38.327Z,60.73
2017-04-10T03:33:43.022Z,61.67
2017-04-10T03:34:43.831Z,60.95
2017-04-10T03:35:43.904Z,60.56
2017-04-10T03:36:39.547Z,60.91
2017-04-10T03:37:39.099Z,60.77
2017-04-10T03:43:44.117Z,61.00
2017-04-10T03:47:43.095Z,60.51
2017-04-10T03:48:38.141Z,60.44
2017-04-10T03:49:45.272Z,59.94
2017-04-10T03:51:44.785Z,60.40
2017-04-10T03:52:38.765Z,60.33
2017-04-10T03:53:49.910Z,60.29
2017-04-10T03:54:46.313Z,60.71
2017-04-10T04:00:45.063Z,61.18
2017-04-10T04:11:43.360Z,61.11
2017-04-10T04:22:38.769Z,60.98
2017-04-10T04:26:38.419Z,60.18
2017-04-10T04:27:40.286Z,60.27
2017-04-10T04:28:45.136Z,59.89
2017-04-10T04:29:40.141Z,59.87
2017-04-10T04:30:43.660Z,59.85
2017-04-10T04:31:38.871Z,59.78
2017-04-10T04:32:45.386Z,59.98
2017-04-10T04:33:43.048Z,59.81
2017-04-10T04:34:37.913Z,60.66
2017-04-10T04:36:42.850Z,60.30
2017-04-10T04:37:43.397Z,59.85
2017-04-10T04:38:45.698Z,60.33
2017-04-10T04:39:43.577Z,60.69
2017-04-10T04:41:38.168Z,60.23
2017-04-10T04:43:35.166Z,60.06
2017-04-10T04:48:39.419Z,60.42
2017-04-10T04:49:44.374Z,60.07
2017-04-10T05:02:38.152Z,59.43
2017-04-10T05:03:37.974Z,59.26
2017-04-10T05:08:48.115Z,58.94
2017-04-10T05:09:48.186Z,59.07
2017-04-10T05:10:38.249Z,59.06
2017-04-10T05:12:38.956Z,58.58
2017-04-10T05:13:38.232Z,59.01
2017-04-10T05:16:35.651Z,59.27
2017-04-10T05:20:43.870Z,59.77
2017-04-10T05:21:38.968Z,60.19
2017-04-10T05:42:38.495Z,58.23
2017-04-10T05:57:38.472Z,57.61
2017-04-10T06:01:39.095Z,56.32
2017-04-10T06:02:39.053Z,56.89
2017-04-10T06:03:38.060Z,56.32
2017-04-10T06:06:38.431Z,56.43
2017-04-10T06:09:38.772Z,56.34
2017-04-10T06:10:43.167Z,56.96
2017-04-10T06:11:38.128Z,57.29
2017-04-10T06:12:43.348Z,57.42
2017-04-10T06:13:43.345Z,56.24
2017-04-10T06:17:43.326Z,55.37
2017-04-10T06:18:43.073Z,55.00
2017-04-10T06:19:40.232Z,54.87
2017-04-10T06:21:38.844Z,54.46
2017-04-10T06:23:43.548Z,54.85
2017-04-10T06:24:38.708Z,54.93
2017-04-10T06:27:38.709Z,54.36
2017-04-10T06:28:43.557Z,54.46
2017-04-10T06:29:38.283Z,55.00
2017-04-10T06:31:39.517Z,55.07
2017-04-10T06:32:39.090Z,54.94
2017-04-10T06:33:38.194Z,55.09
2017-04-10T06:34:38.097Z,54.98
2017-04-10T06:37:38.216Z,54.33
2017-04-10T06:38:43.243Z,53.98
2017-04-10T06:40:39.096Z,54.33
2017-04-10T06:42:38.941Z,54.42
2017-04-10T06:48:38.965Z,54.27
2017-04-10T06:50:44.469Z,53.68
2017-04-10T06:51:43.509Z,53.98
2017-04-10T06:52:38.726Z,54.09
2017-04-10T06:53:38.698Z,54.06
2017-04-10T06:54:38.598Z,54.08
2017-04-10T06:55:45.387Z,53.37
2017-04-10T06:57:38.975Z,52.90
2017-04-10T06:58:37.898Z,52.86
2017-04-10T07:01:39.626Z,52.97
2017-04-10T07:04:38.574Z,52.31
2017-04-10T10:34:38.355Z,43.05
2017-04-10T11:42:51.530Z,39.15
2017-04-10T12:41:42.075Z,35.78
2017-04-10T12:45:50.987Z,35.56
2017-04-10T12:47:48.477Z,34.78
2017-04-10T12:48:49.612Z,33.49
2017-04-10T12:53:46.951Z,33.20
2017-04-10T13:01:46.682Z,33.91
2017-04-10T13:03:40.478Z,33.60
2017-04-10T13:07:39.102Z,32.75
2017-04-10T13:10:58.996Z,33.01
2017-04-10T13:11:38.073Z,33.45
2017-04-10T13:12:44.313Z,33.38
2017-04-10T13:18:40.188Z,31.13
2017-04-10T13:19:44.544Z,28.53
2017-04-10T13:20:44.474Z,28.97
2017-04-10T13:21:46.455Z,28.49
2017-04-10T13:22:49.222Z,28.07
2017-04-10T13:23:39.452Z,28.13
2017-04-10T13:24:44.304Z,27.41
2017-04-10T13:26:07.904Z,27.57
2017-04-10T13:26:50.902Z,27.14
2017-04-10T13:27:58.181Z,26.19
2017-04-10T13:28:40.258Z,26.36
2017-04-10T13:29:44.233Z,26.57
2017-04-10T13:30:40.031Z,26.33
2017-04-10T13:32:59.740Z,26.19
2017-04-10T13:33:44.905Z,26.47
2017-04-10T13:34:44.930Z,26.40
2017-04-10T13:36:00.254Z,26.90
2017-04-10T13:36:51.925Z,26.99
2017-04-10T13:37:34.637Z,25.45
2017-04-10T13:38:41.036Z,26.06
2017-04-10T13:39:45.151Z,26.16
2017-04-10T13:40:44.159Z,26.51
2017-04-10T13:41:44.958Z,26.81
2017-04-10T13:42:35.057Z,26.82
2017-04-10T13:43:45.919Z,26.92
2017-04-10T13:44:45.045Z,26.80
2017-04-10T13:45:45.272Z,27.15
2017-04-10T13:46:45.032Z,27.40
2017-04-10T13:47:40.187Z,27.18
2017-04-10T13:48:42.965Z,27.19
2017-04-10T13:49:44.741Z,25.89
2017-04-10T13:50:45.234Z,25.22
2017-04-10T13:51:33.427Z,25.18
2017-04-10T13:52:45.348Z,25.05
2017-04-10T13:53:47.318Z,25.03
2017-04-10T13:54:45.273Z,25.32
2017-04-10T13:55:40.396Z,25.27
2017-04-10T13:56:45.269Z,25.73
2017-04-10T13:57:44.408Z,24.90
2017-04-10T13:58:50.262Z,25.38
2017-04-10T13:59:45.285Z,25.03
2017-04-10T14:00:45.291Z,25.54
2017-04-10T14:01:45.386Z,24.95
2017-04-10T14:02:35.292Z,25.22
2017-04-10T14:03:40.081Z,25.68
2017-04-10T14:04:45.298Z,26.24
2017-04-10T14:05:40.563Z,26.41
2017-04-10T14:06:39.008Z,26.38
2017-04-10T14:07:45.294Z,26.74
2017-04-10T14:08:44.613Z,27.15
2017-04-10T14:09:45.281Z,27.61
2017-04-10T14:10:40.165Z,27.46
2017-04-10T14:11:45.222Z,26.47
2017-04-10T14:12:45.245Z,26.74
2017-04-10T14:13:43.019Z,26.03
2017-04-10T14:14:45.292Z,26.29
2017-04-10T14:15:45.972Z,26.70
2017-04-10T14:16:43.406Z,26.69
2017-04-10T14:18:46.361Z,26.43
2017-04-10T14:19:59.697Z,26.40
2017-04-10T14:20:46.007Z,26.70
2017-04-10T14:21:44.316Z,26.62
2017-04-10T14:22:51.316Z,26.74
2017-04-10T14:23:45.490Z,26.82
2017-04-10T14:24:50.955Z,27.26
2017-04-10T14:25:40.089Z,27.24
2017-04-10T14:26:44.624Z,27.49
2017-04-10T14:27:45.315Z,27.20
2017-04-10T14:28:42.961Z,27.69
2017-04-10T14:31:45.297Z,27.25
2017-04-10T14:34:45.021Z,27.37
2017-04-10T14:36:45.946Z,27.70
2017-04-10T14:37:44.530Z,27.90
2017-04-10T14:38:45.596Z,27.44
2017-04-10T14:39:50.851Z,27.83
2017-04-10T14:41:41.308Z,27.60
2017-04-10T14:44:45.587Z,27.47
2017-04-10T14:45:45.987Z,27.56
2017-04-10T14:46:45.071Z,27.55
2017-04-10T14:47:44.073Z,27.36
2017-04-10T14:48:40.292Z,27.94
2017-04-10T14:49:43.063Z,27.54
2017-04-10T14:50:33.486Z,27.53
2017-04-10T14:51:40.549Z,27.78
2017-04-10T14:52:45.658Z,27.94
2017-04-10T14:53:44.476Z,27.61
2017-04-10T14:54:40.839Z,27.32
2017-04-10T14:55:45.812Z,27.36
2017-04-10T14:56:45.565Z,26.98
2017-04-10T14:57:35.951Z,27.17
2017-04-10T14:58:33.067Z,26.57
2017-04-10T14:59:40.781Z,26.58
2017-04-10T15:00:36.577Z,26.29
2017-04-10T15:01:41.535Z,25.95
2017-04-10T15:02:45.290Z,25.85
2017-04-10T15:03:45.325Z,25.70
2017-04-10T15:04:40.456Z,25.65
2017-04-10T15:05:45.251Z,25.13
2017-04-10T15:06:43.300Z,25.66
2017-04-10T15:07:40.621Z,25.56
2017-04-10T15:08:35.468Z,25.59
2017-04-10T15:09:43.875Z,25.08
2017-04-10T15:10:40.954Z,25.19
2017-04-10T15:11:44.228Z,25.02
2017-04-10T15:12:43.074Z,25.13
2017-04-10T15:13:43.140Z,25.57
2017-04-10T15:14:45.167Z,25.80
2017-04-10T15:15:38.214Z,25.61
2017-04-10T15:16:45.195Z,25.93
2017-04-10T15:17:33.467Z,25.79
2017-04-10T15:18:46.046Z,26.04
2017-04-10T15:20:44.669Z,26.50
2017-04-10T15:22:33.014Z,26.02
2017-04-10T15:23:38.034Z,26.35
2017-04-10T15:24:41.258Z,27.85
2017-04-10T15:25:45.311Z,27.22
2017-04-10T15:26:38.913Z,27.64
2017-04-10T15:27:44.376Z,27.70
2017-04-10T15:29:40.696Z,28.26
2017-04-10T15:39:50.123Z,27.16
2017-04-10T15:40:45.278Z,27.20
2017-04-10T15:41:39.523Z,26.46
2017-04-10T15:42:44.993Z,25.84
2017-04-10T15:43:43.325Z,25.85
2017-04-10T15:45:48.909Z,26.08
2017-04-10T15:46:44.258Z,25.87
2017-04-10T15:47:49.887Z,25.94
2017-04-10T15:51:39.274Z,29.36
2017-04-10T15:54:37.984Z,30.83
2017-04-10T15:55:41.693Z,30.82
2017-04-10T15:56:40.823Z,31.39
2017-04-10T15:57:36.544Z,30.46
2017-04-10T16:00:44.949Z,30.54
2017-04-10T16:07:49.922Z,28.24
2017-04-10T16:08:38.033Z,28.14
2017-04-10T16:09:41.093Z,28.02
2017-04-10T16:12:40.608Z,28.39
2017-04-10T16:14:45.262Z,28.55
2017-04-10T16:15:35.323Z,28.63
2017-04-10T16:17:44.490Z,30.15
2017-04-10T16:19:45.465Z,30.68
2017-04-10T16:20:45.556Z,30.66
2017-04-10T16:21:38.756Z,29.89
2017-04-10T16:22:46.188Z,28.71
2017-04-10T16:23:43.471Z,27.60
2017-04-10T16:24:43.504Z,27.98
2017-04-10T16:25:47.003Z,27.89
2017-04-10T16:26:42.957Z,26.04
2017-04-10T16:27:40.157Z,25.73
2017-04-10T16:28:43.394Z,25.53
2017-04-10T16:29:45.812Z,25.49
2017-04-10T16:30:45.525Z,25.30
2017-04-10T16:31:43.571Z,25.73
2017-04-10T16:32:43.508Z,25.99
2017-04-10T16:33:38.534Z,26.71
2017-04-10T16:34:38.283Z,26.93
2017-04-10T16:35:38.441Z,27.09
2017-04-10T16:36:33.480Z,27.40
2017-04-10T16:37:39.253Z,28.24
2017-04-10T16:38:43.929Z,28.58
2017-04-10T16:39:43.865Z,28.88
2017-04-10T16:40:41.023Z,29.11
2017-04-10T16:41:42.467Z,29.78
2017-04-10T16:42:50.537Z,29.81
2017-04-10T16:43:45.925Z,30.17
2017-04-10T16:44:46.622Z,30.40
2017-04-10T16:45:43.748Z,30.65
2017-04-10T16:46:45.846Z,30.56
2017-04-10T16:47:41.231Z,30.77
2017-04-10T16:48:42.690Z,30.95
2017-04-10T16:49:41.033Z,31.05
2017-04-10T16:50:17.435Z,31.31
2017-04-10T16:51:17.190Z,31.49
2017-04-10T16:52:16.993Z,31.46
2017-04-10T16:53:40.288Z,31.82
2017-04-10T16:54:42.679Z,32.12
2017-04-10T16:55:44.536Z,32.11
2017-04-10T16:56:45.472Z,32.45
2017-04-10T16:57:33.532Z,31.97
2017-04-10T16:58:40.721Z,32.11
2017-04-10T16:59:40.634Z,32.21
2017-04-10T17:00:55.256Z,32.62
2017-04-10T17:01:35.551Z,32.40
2017-04-10T17:04:38.712Z,32.53
2017-04-10T17:05:39.604Z,32.46
2017-04-10T17:06:37.953Z,32.45
2017-04-10T17:07:41.099Z,32.25
2017-04-10T17:08:44.341Z,32.53
2017-04-10T17:09:52.268Z,32.38
2017-04-10T17:10:28.738Z,32.48
2017-04-10T17:11:34.891Z,32.21
2017-04-10T17:12:49.384Z,32.51
2017-04-10T17:13:45.339Z,32.50
2017-04-10T17:14:40.191Z,32.58
2017-04-10T17:15:42.722Z,32.55
2017-04-10T17:16:50.482Z,32.54
2017-04-10T17:20:44.644Z,32.22
2017-04-10T17:21:49.909Z,32.07
2017-04-10T17:22:45.246Z,32.04
2017-04-10T17:23:45.959Z,32.43
2017-04-10T17:25:41.254Z,32.67
2017-04-10T17:26:44.462Z,32.72
2017-04-10T17:29:43.910Z,33.18
2017-04-10T17:30:44.663Z,33.19
2017-04-10T17:31:34.904Z,33.36
2017-04-10T17:34:38.518Z,33.24
2017-04-10T17:35:38.388Z,33.48
2017-04-10T17:37:35.460Z,33.10
2017-04-10T17:38:33.525Z,33.37
2017-04-10T17:39:39.072Z,33.26
2017-04-10T17:40:44.866Z,33.38
2017-04-10T17:41:46.532Z,33.40
2017-04-10T17:42:33.462Z,33.98
2017-04-10T17:44:45.933Z,32.84
2017-04-10T17:45:45.195Z,32.72
2017-04-10T17:46:32.890Z,32.57
2017-04-10T17:48:42.313Z,32.52
2017-04-10T17:49:47.581Z,32.25
2017-04-10T18:00:41.313Z,33.16
2017-04-10T18:03:38.844Z,34.15
2017-04-10T18:04:39.217Z,33.51
2017-04-10T18:05:34.251Z,33.47
2017-04-10T18:06:45.874Z,33.21
2017-04-10T18:07:41.369Z,33.74
2017-04-10T18:09:44.174Z,33.76
2017-04-10T18:10:42.935Z,34.92
2017-04-10T18:11:40.254Z,34.85
2017-04-10T18:12:44.233Z,34.33
2017-04-10T18:13:39.645Z,34.31
2017-04-10T18:14:38.634Z,34.88
2017-04-10T18:15:43.628Z,34.03
2017-04-10T18:16:33.653Z,34.17
2017-04-10T18:17:45.456Z,34.92
2017-04-10T18:18:38.188Z,35.02
2017-04-10T18:19:33.458Z,34.62
2017-04-10T18:20:44.874Z,34.12
2017-04-10T18:21:45.921Z,34.69
2017-04-10T18:22:55.493Z,34.33
2017-04-10T18:23:38.874Z,34.73
2017-04-10T18:24:44.382Z,34.13
2017-04-10T18:25:35.752Z,33.94
2017-04-10T18:26:44.893Z,33.95
2017-04-10T18:28:40.777Z,34.09
2017-04-10T18:29:32.513Z,34.13
2017-04-10T18:30:38.544Z,34.25
2017-04-10T18:31:38.649Z,34.27
2017-04-10T18:32:44.881Z,34.58
2017-04-10T18:33:42.929Z,34.65
2017-04-10T18:34:44.415Z,34.33
2017-04-10T18:36:45.899Z,34.63
2017-04-10T18:37:45.225Z,34.62
2017-04-10T18:38:40.635Z,34.75
2017-04-10T18:39:45.903Z,34.77
2017-04-10T18:41:45.906Z,35.36
2017-04-10T18:42:44.906Z,35.49
2017-04-10T18:43:41.656Z,35.59
2017-04-10T18:45:43.199Z,35.93
2017-04-10T18:46:40.670Z,36.06
2017-04-10T18:47:43.899Z,35.92
2017-04-10T18:48:45.032Z,36.03
2017-04-10T18:49:45.628Z,36.19
2017-04-10T18:50:38.902Z,36.19
2017-04-10T18:51:40.677Z,36.90
2017-04-10T18:52:45.765Z,36.75
2017-04-10T18:53:49.664Z,36.48
2017-04-10T18:55:34.931Z,36.43
2017-04-10T18:56:38.947Z,36.54
2017-04-10T18:57:39.190Z,36.66
2017-04-10T18:58:38.749Z,36.61
2017-04-10T18:59:50.188Z,36.68
2017-04-10T19:00:35.226Z,36.81
2017-04-10T19:02:39.923Z,37.45
2017-04-10T19:03:39.243Z,37.13
2017-04-10T19:05:39.654Z,37.37
2017-04-10T19:06:48.191Z,37.48
2017-04-10T19:07:33.215Z,37.49
2017-04-10T19:08:40.741Z,37.68
2017-04-10T19:11:38.802Z,38.01
2017-04-10T19:12:48.687Z,37.56
2017-04-10T19:13:40.035Z,37.19
2017-04-10T19:14:34.199Z,37.97
2017-04-10T19:15:38.836Z,38.20
2017-04-10T19:16:39.361Z,37.89
2017-04-10T19:17:59.700Z,38.82
2017-04-10T19:19:33.448Z,39.26
2017-04-10T19:20:30.110Z,39.79
2017-04-10T19:27:12.128Z,39.28
2017-04-10T19:31:44.454Z,39.57
2017-04-10T19:33:45.374Z,38.49
2017-04-10T19:35:39.795Z,39.59
2017-04-10T19:36:37.423Z,41.04
2017-04-10T19:37:28.185Z,40.52
2017-04-10T19:45:44.158Z,39.18
2017-04-10T19:49:43.688Z,40.11
2017-04-10T19:54:49.625Z,41.36
2017-04-10T19:55:43.973Z,38.77
2017-04-10T19:56:39.690Z,37.75
2017-04-10T19:57:39.829Z,37.82
2017-04-10T19:59:44.410Z,37.72
2017-04-10T20:00:39.047Z,38.67
2017-04-10T20:02:40.557Z,38.02
2017-04-10T20:03:43.876Z,38.04
2017-04-10T20:04:33.364Z,40.63
2017-04-10T20:05:36.722Z,39.68
2017-04-10T20:06:38.416Z,41.08
2017-04-10T20:07:43.626Z,41.24
2017-04-10T20:08:35.045Z,39.78
2017-04-10T20:09:44.107Z,39.69
2017-04-10T20:10:39.431Z,40.05
2017-04-10T20:11:41.119Z,40.18
2017-04-10T20:12:47.939Z,40.62
2017-04-10T20:16:39.557Z,45.06
2017-04-10T20:17:38.773Z,46.53
2017-04-10T20:20:43.955Z,48.88
2017-04-10T20:22:44.848Z,49.77
2017-04-10T20:30:39.257Z,49.96
2017-04-10T20:31:39.371Z,49.96
2017-04-10T20:36:40.449Z,49.45
2017-04-10T20:37:37.638Z,49.55
2017-04-10T20:39:48.099Z,49.50
2017-04-10T20:40:44.460Z,49.47
2017-04-10T20:41:43.961Z,49.57
2017-04-10T20:42:39.284Z,49.25
2017-04-10T20:43:39.185Z,49.40
2017-04-10T20:45:11.451Z,49.61
2017-04-10T20:48:26.231Z,49.73
2017-04-10T20:51:30.912Z,50.84
2017-04-10T20:52:46.873Z,50.65
2017-04-10T20:53:45.273Z,51.21
2017-04-10T20:54:40.219Z,50.29
2017-04-10T20:55:44.026Z,49.26
2017-04-10T20:57:47.098Z,49.44
2017-04-10T20:58:44.430Z,49.79
2017-04-10T21:00:40.197Z,49.88
2017-04-10T21:01:42.686Z,49.56
2017-04-10T21:03:38.756Z,49.65
2017-04-10T21:05:44.240Z,51.40
2017-04-10T21:06:38.369Z,52.37
2017-04-10T21:09:40.347Z,52.13
2017-04-10T21:13:39.821Z,52.34
2017-04-10T21:14:42.197Z,52.20
2017-04-10T21:15:45.547Z,51.72
2017-04-10T21:16:44.948Z,51.54
2017-04-10T21:17:45.215Z,51.54
2017-04-10T21:18:45.673Z,52.15
2017-04-10T21:22:47.183Z,51.65
2017-04-10T21:23:44.059Z,51.44
2017-04-10T21:24:44.838Z,51.59
2017-04-10T21:25:39.920Z,51.40
2017-04-10T21:26:46.222Z,51.02
2017-04-10T21:27:34.170Z,51.31
2017-04-10T21:29:40.541Z,51.13
2017-04-10T21:30:43.598Z,50.97
2017-04-10T21:31:35.216Z,51.05
2017-04-10T21:32:47.844Z,51.01
2017-04-10T21:33:35.139Z,51.06
2017-04-10T21:36:49.094Z,50.39
2017-04-10T21:37:40.339Z,50.11
2017-04-10T21:38:47.498Z,50.20
2017-04-10T21:44:44.227Z,50.51
2017-04-10T21:45:45.375Z,50.50
2017-04-10T21:46:40.428Z,50.41
2017-04-10T21:47:44.112Z,50.46
2017-04-10T21:48:43.999Z,50.61
2017-04-10T21:49:43.190Z,50.82
2017-04-10T21:50:42.821Z,50.86
2017-04-10T21:51:44.424Z,51.51
2017-04-10T21:52:45.796Z,51.61
2017-04-10T21:53:44.255Z,51.47
2017-04-10T21:54:40.126Z,52.21
2017-04-10T21:56:44.044Z,52.12
2017-04-10T21:57:40.392Z,52.34
2017-04-10T21:58:44.076Z,52.46
2017-04-10T21:59:45.238Z,52.55
2017-04-10T22:01:44.456Z,53.37
2017-04-10T22:02:43.826Z,53.45
2017-04-10T22:03:38.973Z,53.52
2017-04-10T22:04:40.177Z,53.46
2017-04-10T22:05:45.370Z,53.36
2017-04-10T22:06:40.440Z,53.67
2017-04-10T22:07:39.607Z,53.74
2017-04-10T22:09:39.421Z,53.97
2017-04-10T22:10:45.606Z,54.44
2017-04-10T22:11:38.992Z,54.73
2017-04-10T22:12:45.239Z,55.14
2017-04-10T22:13:44.457Z,56.11
2017-04-10T22:14:45.607Z,56.81
2017-04-10T22:16:44.457Z,67.12
2017-04-10T22:17:41.821Z,71.52
2017-04-10T22:18:43.525Z,74.55
2017-04-10T22:19:40.418Z,73.50
2017-04-10T22:20:45.676Z,75.17
2017-04-10T22:21:43.661Z,74.73
2017-04-10T22:22:38.677Z,73.14
2017-04-10T22:23:45.568Z,74.53
2017-04-10T22:24:39.668Z,71.39
2017-04-10T22:25:45.232Z,72.58
2017-04-10T22:26:35.094Z,72.18
2017-04-10T22:27:45.186Z,72.47
2017-04-10T22:28:45.337Z,73.05
2017-04-10T22:29:44.464Z,74.25
2017-04-10T22:30:44.185Z,75.68
2017-04-10T22:31:40.455Z,73.16
2017-04-10T22:32:45.624Z,74.50
2017-04-10T22:33:45.680Z,74.25
2017-04-10T22:34:40.332Z,72.94
2017-04-10T22:36:44.048Z,73.05
2017-04-10T22:37:33.212Z,73.89
2017-04-10T22:38:43.555Z,73.86
2017-04-10T22:39:40.496Z,72.65
2017-04-10T22:40:44.457Z,72.28
2017-04-10T22:41:45.647Z,73.84
2017-04-10T22:42:45.583Z,72.44
2017-04-10T22:43:45.361Z,73.49
2017-04-10T22:44:45.475Z,71.89
2017-04-10T22:45:44.454Z,73.41
2017-04-10T22:46:45.523Z,72.73
2017-04-10T22:47:39.679Z,72.22
2017-04-10T22:48:39.744Z,71.36
2017-04-10T22:49:46.453Z,71.35
2017-04-10T22:51:44.457Z,72.32
2017-04-10T22:52:51.483Z,72.57
2017-04-10T22:53:47.757Z,72.33
2017-04-10T22:54:39.504Z,71.98
2017-04-10T22:55:44.457Z,73.49
2017-04-10T22:56:40.770Z,72.06
2017-04-10T22:57:40.969Z,71.28
2017-04-10T22:58:39.783Z,72.80
2017-04-10T23:00:48.515Z,72.85
2017-04-10T23:01:45.650Z,72.42
2017-04-10T23:02:44.456Z,73.25
2017-04-10T23:03:45.492Z,71.96
2017-04-10T23:04:49.307Z,73.24
2017-04-10T23:05:45.704Z,71.57
2017-04-10T23:06:45.611Z,71.77
2017-04-10T23:07:41.074Z,72.24
2017-04-10T23:09:45.423Z,73.01
2017-04-10T23:11:44.835Z,71.47
2017-04-10T23:12:40.940Z,71.91
2017-04-10T23:13:43.225Z,72.07
2017-04-10T23:14:43.014Z,69.98
2017-04-10T23:15:44.394Z,70.16
2017-04-10T23:16:40.660Z,70.28
2017-04-10T23:17:34.223Z,68.96
2017-04-10T23:19:40.486Z,67.86
2017-04-10T23:20:43.857Z,67.88
2017-04-10T23:21:46.650Z,67.40
2017-04-10T23:22:43.589Z,67.02
2017-04-10T23:23:49.000Z,66.17
2017-04-10T23:24:43.437Z,65.45
2017-04-10T23:25:45.929Z,66.49
2017-04-10T23:26:39.838Z,66.16
2017-04-10T23:27:45.438Z,66.84
2017-04-10T23:28:46.224Z,66.06
2017-04-10T23:30:40.157Z,67.55
2017-04-10T23:31:44.449Z,65.69
2017-04-10T23:32:43.841Z,65.99
2017-04-10T23:33:46.248Z,66.20
2017-04-10T23:35:43.527Z,64.82
2017-04-10T23:37:39.251Z,65.19
2017-04-10T23:38:47.440Z,65.79
2017-04-10T23:39:46.442Z,64.38
2017-04-10T23:40:40.619Z,64.71
2017-04-10T23:41:45.715Z,64.09
2017-04-10T23:42:44.415Z,64.24
2017-04-10T23:44:28.556Z,64.51
2017-04-10T23:45:35.460Z,64.41
2017-04-10T23:46:44.466Z,63.85
2017-04-10T23:47:45.468Z,66.28
2017-04-10T23:48:44.458Z,65.82
2017-04-10T23:49:44.826Z,64.21
2017-04-10T23:50:40.859Z,64.96
2017-04-10T23:51:43.739Z,63.87
2017-04-10T23:52:45.911Z,63.23
2017-04-10T23:53:40.896Z,63.90
2017-04-10T23:54:40.879Z,64.74
2017-04-10T23:55:39.979Z,64.49
2017-04-10T23:56:45.184Z,65.19
2017-04-10T23:57:45.899Z,64.43
2017-04-10T23:58:41.173Z,65.16
2017-04-10T23:59:45.317Z,64.07
